Time;durP1;ratioP1;P1;durP2;ratioP2;P2;SDS_P1;SDS_P2;PMS_P1;PMS_P2;Temp;Humidity;BMP_temperature;BMP_pressure;BME280_temperature;BME280_humidity;BME280_pressure;Samples;Min_cycle;Max_cycle;Signal;HPM_P1;HPM_P2
2021/04/04 00:02:13;;;;;;;2.58;1.73;;;;;;;3.13;100.00;92885.31;5012778;28;20053;-83
2021/04/04 00:04:40;;;;;;;3.20;2.15;;;;;;;3.20;100.00;92889.53;5012809;28;20104;-84
2021/04/04 00:07:06;;;;;;;;;;;;;;;3.10;100.00;92889.00;5012606;28;20053;-83
2021/04/04 00:09:32;;;;;;;4.45;2.65;;;;;;;3.13;100.00;92883.59;5012622;28;19921;-83
2021/04/04 00:11:58;;;;;;;3.53;2.05;;;;;;;3.17;100.00;92894.97;5012312;28;20049;-82
2021/04/04 00:14:25;;;;;;;;;;;;;;;3.33;100.00;92898.31;5012861;28;20065;-82
2021/04/04 00:16:51;;;;;;;1.80;1.20;;;;;;;2.97;100.00;92886.25;5012462;28;19925;-82
2021/04/04 00:19:18;;;;;;;;;;;;;;;2.85;100.00;92894.28;5012949;28;20046;-83
2021/04/04 00:21:44;;;;;;;1.73;0.95;;;;;;;2.70;100.00;92895.97;5012160;28;19925;-82
2021/04/04 00:24:11;;;;;;;2.00;1.42;;;;;;;2.65;100.00;92901.53;5012475;28;20462;-81
2021/04/04 00:26:37;;;;;;;2.88;1.88;;;;;;;2.60;100.00;92898.72;5012199;28;20514;-83
2021/04/04 00:29:05;;;;;;;;;;;;;;;2.65;100.00;92904.09;5012394;28;20050;-83
2021/04/04 00:31:32;;;;;;;1.27;0.70;;;;;;;2.51;100.00;92892.91;5012169;28;19925;-83
2021/04/04 00:33:58;;;;;;;4.97;2.42;;;;;;;2.67;100.00;92908.03;5011991;28;20486;-83
2021/04/04 00:36:25;;;;;;;3.63;2.15;;;;;;;2.65;100.00;92907.38;5011961;28;20498;-83
2021/04/04 00:38:51;;;;;;;2.85;1.77;;;;;;;2.66;100.00;92896.31;5012121;28;20046;-83
2021/04/04 00:41:18;;;;;;;3.58;1.90;;;;;;;2.89;100.00;92902.31;5011815;28;20069;-83
2021/04/04 00:43:44;;;;;;;4.85;2.75;;;;;;;2.94;100.00;92895.78;5011794;28;20046;-83
2021/04/04 00:46:10;;;;;;;3.25;1.38;;;;;;;2.89;100.00;92899.78;5011605;28;20057;-83
2021/04/04 00:48:37;;;;;;;;;;;;;;;2.97;100.00;92907.34;5012373;28;20396;-83
2021/04/04 00:51:04;;;;;;;3.10;1.80;;;;;;;2.84;100.00;92907.13;5011640;28;19944;-83
2021/04/04 00:53:31;;;;;;;3.58;1.60;;;;;;;2.88;100.00;92908.38;5011783;28;20046;-83
2021/04/04 00:55:57;;;;;;;2.65;1.75;;;;;;;2.76;100.00;92891.00;5011733;28;20096;-83
2021/04/04 00:58:24;;;;;;;3.88;1.77;;;;;;;2.96;100.00;92915.91;5011707;28;20054;-83
2021/04/04 01:00:50;;;;;;;4.07;2.08;;;;;;;3.01;100.00;92915.41;5011661;28;20045;-83
2021/04/04 01:03:16;;;;;;;;;;;;;;;3.13;100.00;92915.78;5011495;28;20061;-84
2021/04/04 01:05:46;;;;;;;2.10;1.48;;;;;;;3.00;100.00;92917.16;5011604;28;20401;-84
2021/04/04 01:08:12;;;;;;;3.20;1.67;;;;;;;2.93;100.00;92916.25;5011297;28;20136;-84
2021/04/04 01:10:42;;;;;;;3.80;2.10;;;;;;;2.95;100.00;92911.78;5011391;28;20400;-84
2021/04/04 01:13:18;;;;;;;2.78;1.88;;;;;;;2.82;100.00;92899.66;5011294;28;20431;-84
2021/04/04 01:15:47;;;;;;;3.28;1.92;;;;;;;2.82;100.00;92904.75;5011309;28;20053;-84
2021/04/04 01:18:21;;;;;;;3.22;1.92;;;;;;;2.71;100.00;92895.78;5011270;28;20049;-83
2021/04/04 01:20:52;;;;;;;5.05;3.50;;;;;;;2.74;100.00;92877.69;5011151;28;20046;-83
2021/04/04 01:23:33;;;;;;;2.38;1.08;;;;;;;2.97;100.00;92916.69;5010906;28;20494;-84
2021/04/04 01:26:05;;;;;;;2.67;1.75;;;;;;;2.93;100.00;92913.72;5011325;28;20099;-84
2021/04/04 01:28:38;;;;;;;4.65;2.85;;;;;;;2.94;100.00;92907.69;5011099;28;20053;-84
2021/04/04 01:31:07;;;;;;;2.40;1.27;;;;;;;2.83;100.00;92910.63;5011092;28;20597;-85
2021/04/04 01:33:35;;;;;;;3.30;1.40;;;;;;;2.79;100.00;92905.09;5011022;28;20447;-83
2021/04/04 01:36:06;;;;;;;3.50;0.77;;;;;;;2.78;100.00;92914.44;5010998;28;20099;-85
2021/04/04 01:38:37;;;;;;;1.67;1.23;;;;;;;2.51;100.00;92910.66;5010694;28;20418;-83
2021/04/04 01:41:10;;;;;;;3.97;2.25;;;;;;;2.52;100.00;92895.28;5010923;28;20384;-82
2021/04/04 01:43:41;;;;;;;2.03;1.58;;;;;;;2.49;100.00;92889.75;5010917;28;20101;-83
2021/04/04 01:46:08;;;;;;;4.28;1.90;;;;;;;2.48;100.00;92890.69;5010347;28;20049;-83
2021/04/04 01:48:35;;;;;;;2.47;1.05;;;;;;;2.41;100.00;92890.59;5010430;28;20053;-82
2021/04/04 01:51:02;;;;;;;2.92;1.58;;;;;;;2.42;100.00;92896.44;5010421;28;20046;-82
2021/04/04 01:53:31;;;;;;;4.65;2.13;;;;;;;2.39;100.00;92905.97;5010213;28;20053;-82
2021/04/04 01:55:58;;;;;;;3.13;1.73;;;;;;;2.44;100.00;92907.22;5010744;28;20046;-82
2021/04/04 01:58:26;;;;;;;3.85;1.48;;;;;;;2.60;100.00;92909.63;5010552;28;20050;-83
2021/04/04 02:00:54;;;;;;;2.35;1.52;;;;;;;2.45;100.00;92896.91;5010512;28;20046;-83
2021/04/04 02:03:22;;;;;;;3.22;1.50;;;;;;;2.37;100.00;92907.09;5010508;28;20050;-83
2021/04/04 02:05:50;;;;;;;2.55;1.40;;;;;;;2.22;100.00;92887.50;5010291;28;20046;-82
2021/04/04 02:08:18;;;;;;;3.28;1.23;;;;;;;2.22;100.00;92895.13;5010453;28;20104;-82
2021/04/04 02:10:44;;;;;;;2.72;2.03;;;;;;;2.28;100.00;92896.22;5010378;28;20049;-83
2021/04/04 02:13:12;;;;;;;3.63;1.75;;;;;;;2.37;100.00;92896.94;5010354;28;20060;-83
2021/04/04 02:15:40;;;;;;;4.18;1.70;;;;;;;2.37;100.00;92896.94;5009470;28;20056;-83
2021/04/04 02:18:09;;;;;;;2.55;1.55;;;;;;;2.29;100.00;92892.72;5010158;28;20046;-82
2021/04/04 02:20:37;;;;;;;4.63;2.40;;;;;;;2.20;100.00;92889.44;5010042;28;20523;-82
2021/04/04 02:23:06;;;;;;;3.47;1.85;;;;;;;2.40;100.00;92894.06;5015382;28;20045;-82
2021/04/04 02:25:33;;;;;;;3.35;1.77;;;;;;;2.16;100.00;92870.44;5027502;28;20053;-82
2021/04/04 02:27:59;;;;;;;4.38;2.50;;;;;;;2.22;100.00;92874.06;5028915;28;20521;-81
2021/04/04 02:30:27;;;;;;;4.30;2.28;;;;;;;2.36;100.00;92880.16;5029524;28;20059;-82
2021/04/04 02:33:00;;;;;;;4.00;2.55;;;;;;;2.34;100.00;92884.59;5029745;28;20045;-81
2021/04/04 02:35:33;;;;;;;5.60;2.00;;;;;;;2.50;100.00;92896.41;5029214;28;20506;-84
2021/04/04 02:38:02;;;;;;;5.10;2.85;;;;;;;2.47;100.00;92899.28;5029387;28;20177;-83
2021/04/04 02:40:29;;;;;;;7.93;3.03;;;;;;;2.50;100.00;92884.50;5029348;28;20457;-83
2021/04/04 02:42:57;;;;;;;5.80;3.38;;;;;;;2.56;100.00;92889.88;5029488;28;20080;-83
2021/04/04 02:45:26;;;;;;;3.03;1.73;;;;;;;2.48;100.00;92855.22;5029415;28;20049;-83
2021/04/04 02:47:58;;;;;;;5.40;2.45;;;;;;;2.48;100.00;92850.94;5029415;28;20421;-85
2021/04/04 02:50:26;;;;;;;4.70;2.60;;;;;;;2.72;100.00;92882.16;5029193;28;20049;-83
2021/04/04 02:52:55;;;;;;;3.15;1.80;;;;;;;2.73;100.00;92883.72;5029033;28;20103;-83
2021/04/04 02:55:23;;;;;;;5.95;3.17;;;;;;;2.55;100.00;92881.50;5029358;28;20076;-83
2021/04/04 02:57:52;;;;;;;3.53;2.50;;;;;;;2.54;100.00;92879.88;5029514;28;20056;-83
2021/04/04 03:00:20;;;;;;;8.38;4.18;;;;;;;2.32;100.00;92867.03;5029145;28;20053;-83
2021/04/04 03:02:48;;;;;;;4.68;2.05;;;;;;;2.39;100.00;92890.75;5028604;28;20049;-83
2021/04/04 03:08:04;;;;;;;6.35;3.25;;;;;;;2.15;100.00;92868.88;5028824;28;20060;-84
2021/04/04 03:10:31;;;;;;;5.88;3.63;;;;;;;2.18;100.00;92882.94;5029156;28;20491;-83
2021/04/04 03:12:59;;;;;;;5.32;2.30;;;;;;;2.17;100.00;92877.09;5028865;28;20056;-83
2021/04/04 03:15:27;;;;;;;6.00;2.53;;;;;;;2.28;100.00;92893.69;5028768;28;20056;-82
2021/04/04 03:17:55;;;;;;;6.45;3.00;;;;;;;2.37;100.00;92877.44;5028785;28;20262;-83
2021/04/04 03:20:22;;;;;;;5.45;3.80;;;;;;;2.38;100.00;92885.84;5029023;28;20045;-83
2021/04/04 03:22:52;;;;;;;5.95;3.53;;;;;;;2.44;100.00;92885.19;5028503;28;20506;-82
2021/04/04 03:25:21;;;;;;;7.22;3.60;;;;;;;2.53;100.00;92879.13;5029089;28;20414;-83
2021/04/04 03:27:49;;;;;;;5.47;2.72;;;;;;;2.56;100.00;92879.72;5031872;28;20053;-83
2021/04/04 03:30:42;;;;;;;6.68;3.97;;;;;;;2.54;100.00;92883.22;5032638;28;20060;-83
2021/04/04 03:33:09;;;;;;;5.72;3.20;;;;;;;2.50;100.00;92856.63;5032900;28;20046;-83
2021/04/04 03:35:37;;;;;;;7.25;3.80;;;;;;;2.70;100.00;92883.28;5032902;28;20056;-83
2021/04/04 03:38:06;;;;;;;8.20;4.47;;;;;;;2.54;100.00;92880.69;5032584;28;20052;-83
2021/04/04 03:40:33;;;;;;;8.82;4.03;;;;;;;2.34;100.00;92864.31;5032847;28;20483;-82
2021/04/04 03:43:06;;;;;;;5.00;3.85;;;;;;;2.62;100.00;92886.66;5032825;28;20041;-81
2021/04/04 03:45:32;;;;;;;7.88;3.75;;;;;;;2.76;100.00;92885.13;5028179;28;20045;-80
2021/04/04 03:47:59;;;;;;;10.45;5.95;;;;;;;2.54;100.00;92839.31;5012448;28;20096;-83
2021/04/04 03:50:26;;;;;;;7.68;3.92;;;;;;;2.91;100.00;92882.63;5014886;28;20050;-82
2021/04/04 03:52:53;;;;;;;8.38;4.90;;;;;;;2.99;100.00;92886.88;5032554;28;20541;-82
2021/04/04 03:55:23;;;;;;;7.18;4.63;;;;;;;3.07;100.00;92884.28;5027828;28;20136;-82
2021/04/04 03:57:52;;;;;;;9.25;5.75;;;;;;;3.10;100.00;92880.59;5023573;28;20131;-82
2021/04/04 04:00:21;;;;;;;8.30;4.65;;;;;;;3.20;100.00;92891.31;5021486;28;20050;-81
2021/04/04 04:02:50;;;;;;;8.50;6.18;;;;;;;3.10;100.00;92873.00;5027729;28;20041;-81
2021/04/04 04:05:17;;;;;;;7.47;4.40;;;;;;;3.28;100.00;92880.28;5025612;28;20056;-80
2021/04/04 04:07:45;;;;;;;7.97;4.55;;;;;;;3.16;100.00;92868.00;5020435;28;20050;-82
2021/04/04 04:10:14;;;;;;;11.95;5.03;;;;;;;3.18;100.00;92868.63;5013057;28;20045;-81
2021/04/04 04:12:42;;;;;;;8.93;4.50;;;;;;;3.15;100.00;92863.13;5021323;28;20049;-81
2021/04/04 04:15:13;;;;;;;8.57;3.35;;;;;;;3.26;100.00;92877.94;5022622;28;20049;-81
2021/04/04 04:17:40;;;;;;;8.18;4.15;;;;;;;3.12;100.00;92856.63;5022492;28;20045;-80
2021/04/04 04:20:08;;;;;;;10.98;5.72;;;;;;;3.18;100.00;92862.75;5021896;28;20046;-81
2021/04/04 04:22:35;;;;;;;11.48;5.90;;;;;;;3.32;100.00;92879.78;5025198;28;20053;-81
2021/04/04 04:25:01;;;;;;;10.48;5.40;;;;;;;3.30;100.00;92874.09;5025693;28;20382;-80
2021/04/04 04:27:28;;;;;;;7.72;5.35;;;;;;;3.37;100.00;92878.47;5020563;28;20061;-81
2021/04/04 04:29:55;;;;;;;7.90;4.90;;;;;;;3.17;100.00;92871.34;5025821;28;20045;-81
2021/04/04 04:32:25;;;;;;;7.70;4.15;;;;;;;3.23;100.00;92874.94;5022023;28;20059;-81
2021/04/04 04:34:54;;;;;;;9.27;4.57;;;;;;;3.19;100.00;92875.28;5028280;28;20049;-81
2021/04/04 04:37:21;;;;;;;14.38;6.47;;;;;;;3.26;100.00;92872.84;5031829;28;20049;-80
2021/04/04 04:39:49;;;;;;;15.15;8.75;;;;;;;3.22;100.00;92858.91;5042036;28;20095;-80
2021/04/04 04:42:17;;;;;;;10.70;5.15;;;;;;;3.23;100.00;92875.72;5028645;28;20049;-81
2021/04/04 04:44:46;;;;;;;7.78;4.75;;;;;;;3.28;100.00;92870.91;5031621;28;20100;-83
2021/04/04 04:47:13;;;;;;;11.48;4.60;;;;;;;3.26;100.00;92875.38;5031309;28;20057;-83
2021/04/04 04:49:43;;;;;;;10.48;5.22;;;;;;;2.96;100.00;92849.94;5031699;28;20491;-85
2021/04/04 04:52:11;;;;;;;8.32;5.05;;;;;;;3.06;100.00;92877.63;5031578;28;20053;-86
2021/04/04 04:54:40;;;;;;;10.73;4.32;;;;;;;2.80;100.00;92874.50;5031168;28;20049;-82
2021/04/04 04:57:08;;;;;;;7.75;3.78;;;;;;;2.84;100.00;92894.44;5011758;28;20449;-83
2021/04/04 04:59:35;;;;;;;11.68;6.32;;;;;;;2.76;100.00;92888.47;5011726;28;20115;-83
2021/04/04 05:02:05;;;;;;;16.30;4.63;;;;;;;2.61;100.00;92878.28;5011472;28;20049;-84
2021/04/04 05:04:31;;;;;;;8.05;4.85;;;;;;;2.62;100.00;92892.53;5013702;28;20061;-83
2021/04/04 05:06:59;;;;;;;13.82;4.43;;;;;;;2.60;100.00;92899.50;5028911;28;20577;-83
2021/04/04 05:09:27;;;;;;;7.47;4.50;;;;;;;2.34;100.00;92872.72;5030839;28;20088;-82
2021/04/04 05:11:55;;;;;;;10.90;4.45;;;;;;;2.40;100.00;92882.19;5030986;28;20556;-83
2021/04/04 05:14:21;;;;;;;7.95;3.90;;;;;;;2.64;100.00;92910.13;5030869;28;20056;-82
2021/04/04 05:16:48;;;;;;;9.65;6.18;;;;;;;2.67;100.00;92897.88;5030862;28;20068;-81
2021/04/04 05:19:15;;;;;;;13.75;6.43;;;;;;;2.88;100.00;92909.13;5030901;28;20046;-82
2021/04/04 05:21:43;;;;;;;8.52;4.65;;;;;;;3.10;100.00;92918.66;5031003;28;20528;-82
2021/04/04 05:24:12;;;;;;;8.15;3.90;;;;;;;3.15;100.00;92914.66;5030717;28;20053;-83
2021/04/04 05:26:40;;;;;;;9.52;5.57;;;;;;;3.05;100.00;92914.09;5030909;28;20069;-82
2021/04/04 05:29:08;;;;;;;8.35;4.35;;;;;;;2.73;100.00;92868.50;5033165;28;20053;-81
2021/04/04 05:31:44;;;;;;;6.00;2.95;;;;;;;2.69;100.00;92902.00;5050350;28;20048;-81
2021/04/04 05:34:11;;;;;;;;;;;;;;;2.70;100.00;92903.56;5043111;28;20053;-84
2021/04/04 05:36:46;;;;;;;5.63;3.90;;;;;;;2.53;100.00;92909.53;5030780;28;20390;-84
2021/04/04 05:39:15;;;;;;;8.63;3.90;;;;;;;2.51;100.00;92897.97;5030791;28;20053;-82
2021/04/04 05:41:43;;;;;;;6.72;3.67;;;;;;;2.73;100.00;92914.16;5030584;28;20728;-83
2021/04/04 05:44:11;;;;;;;5.18;4.25;;;;;;;2.79;100.00;92902.56;5030749;28;20089;-81
2021/04/04 05:46:43;;;;;;;7.15;3.38;;;;;;;2.71;100.00;92903.41;5030305;28;20064;-84
2021/04/04 05:49:17;;;;;;;7.68;4.28;;;;;;;2.83;100.00;92898.72;5030129;28;20045;-84
2021/04/04 05:51:52;;;;;;;7.63;3.60;;;;;;;2.94;100.00;92900.06;5030435;28;20406;-79
2021/04/04 05:55:09;;;;;;;8.30;4.28;;;;;;;2.74;100.00;92882.00;5030413;28;20049;-79
2021/04/04 05:57:45;;;;;;;6.93;3.67;;;;;;;2.87;100.00;92906.78;4990793;28;20556;-79
2021/04/04 06:00:15;;;;;;;7.72;3.78;;;;;;;2.80;100.00;92901.59;5029960;28;20054;-80
2021/04/04 06:03:28;;;;;;;10.65;4.43;;;;;;;2.79;100.00;92916.00;5030346;28;20430;-79
2021/04/04 06:06:15;;;;;;;11.60;4.05;;;;;;;2.87;100.00;92919.47;4988386;28;20526;-80
2021/04/04 06:09:09;;;;;;;14.77;7.25;;;;;;;2.80;100.00;92904.94;5029777;28;20521;-80
2021/04/04 06:12:01;;;;;;;19.05;9.60;;;;;;;2.84;100.00;92892.69;5030148;28;20051;-81
2021/04/04 06:14:39;;;;;;;17.13;8.43;;;;;;;3.19;100.00;92920.97;5025347;28;20534;-80
2021/04/04 06:17:13;;;;;;;18.80;7.20;;;;;;;3.34;100.00;92928.59;5028258;28;20064;-80
2021/04/04 06:19:46;;;;;;;16.08;7.35;;;;;;;3.42;100.00;92925.22;5028928;28;20049;-80
2021/04/04 06:22:19;;;;;;;12.73;6.20;;;;;;;3.49;100.00;92912.63;5006758;28;20045;-80
2021/04/04 06:24:53;;;;;;;10.40;5.78;;;;;;;3.47;100.00;92904.38;5026204;28;20451;-80
2021/04/04 06:27:25;;;;;;;10.68;5.53;;;;;;;2.83;100.00;92834.50;5018667;28;20443;-86
2021/04/04 06:30:20;;;;;;;10.68;5.50;;;;;;;2.91;100.00;92906.28;5017032;28;20049;-80
2021/04/04 06:33:03;;;;;;;12.50;5.75;;;;;;;2.80;100.00;92910.00;5024827;28;20045;-80
2021/04/04 06:35:39;;;;;;;10.02;4.85;;;;;;;2.52;100.00;92876.75;5023389;28;20609;-81
2021/04/04 06:38:25;;;;;;;8.40;5.45;;;;;;;2.36;100.00;92915.66;5018616;28;21328;-81
2021/04/04 06:40:59;;;;;;;13.15;5.45;;;;;;;2.40;100.00;92914.34;5028259;28;20441;-80
2021/04/04 06:43:32;;;;;;;10.75;7.13;;;;;;;2.39;100.00;92922.91;5028361;28;20041;-81
2021/04/04 06:46:11;;;;;;;11.02;6.25;;;;;;;2.50;100.00;92937.75;5009815;28;20411;-81
2021/04/04 06:49:00;;;;;;;13.70;6.30;;;;;;;2.52;100.00;92940.94;5009821;28;20069;-80
2021/04/04 06:51:35;;;;;;;10.20;6.88;;;;;;;2.60;100.00;92934.22;5009490;28;20057;-80
2021/04/04 06:54:11;;;;;;;9.98;5.82;;;;;;;2.57;100.00;92920.13;5009379;28;20442;-81
2021/04/04 06:56:57;;;;;;;12.52;5.82;;;;;;;2.75;100.00;92941.91;5009725;28;20042;-81
2021/04/04 06:59:30;;;;;;;14.77;7.18;;;;;;;2.97;100.00;92942.88;5009367;28;20053;-81
2021/04/04 07:02:05;;;;;;;16.48;6.53;;;;;;;2.78;100.00;92914.44;5009188;28;20042;-81
2021/04/04 07:04:37;;;;;;;13.90;6.45;;;;;;;2.76;100.00;92933.31;5009642;28;20529;-81
2021/04/04 07:07:40;;;;;;;11.57;5.78;;;;;;;2.45;100.00;92942.53;5009176;28;20137;-82
2021/04/04 07:10:46;;;;;;;10.05;5.35;;;;;;;2.55;100.00;92939.81;5009362;28;20049;-81
2021/04/04 07:13:33;;;;;;;11.43;6.68;;;;;;;2.73;100.00;92933.69;4953744;28;20050;-81
2021/04/04 07:16:20;;;;;;;10.80;4.97;;;;;;;2.73;100.00;92928.59;5021103;28;20121;-81
2021/04/04 07:19:05;;;;;;;19.52;8.63;;;;;;;2.95;100.00;92921.94;5006681;28;20050;-82
2021/04/04 07:21:52;;;;;;;11.63;6.30;;;;;;;2.85;100.00;92901.09;5009462;28;20562;-81
2021/04/04 07:24:34;;;;;;;16.08;4.95;;;;;;;2.66;100.00;92914.06;5009218;28;20052;-81
2021/04/04 07:27:08;;;;;;;7.45;4.10;;;;;;;2.83;100.00;92933.44;5008978;28;20058;-81
2021/04/04 07:29:57;;;;;;;12.25;5.60;;;;;;;2.87;100.00;92929.63;5015450;28;20100;-81
2021/04/04 07:32:28;;;;;;;11.00;5.30;;;;;;;2.86;100.00;92926.28;5028988;28;20136;-81
2021/04/04 07:35:03;;;;;;;10.70;5.57;;;;;;;2.75;100.00;92927.47;5029071;28;20096;-81
2021/04/04 07:37:38;;;;;;;13.80;5.97;;;;;;;2.81;100.00;92920.94;5028640;28;20049;-81
2021/04/04 07:40:11;;;;;;;8.73;5.38;;;;;;;2.86;100.00;92920.44;5028905;28;20056;-81
2021/04/04 07:42:47;;;;;;;9.63;5.00;;;;;;;2.88;100.00;92924.34;5028925;28;20617;-81
2021/04/04 07:45:23;;;;;;;12.13;7.30;;;;;;;2.82;100.00;92922.50;5028675;28;20041;-81
2021/04/04 07:47:58;;;;;;;19.65;9.25;;;;;;;2.77;100.00;92929.81;5028747;28;20053;-82
2021/04/04 07:50:27;;;;;;;9.75;6.05;;;;;;;2.75;100.00;92904.66;5028763;28;20049;-81
2021/04/04 07:53:03;;;;;;;6.70;4.32;;;;;;;2.83;100.00;92926.63;5028842;28;20072;-81
2021/04/04 07:55:36;;;;;;;7.35;3.65;;;;;;;2.80;100.00;92919.34;5029003;28;20054;-81
2021/04/04 07:58:11;;;;;;;9.15;5.00;;;;;;;3.09;100.00;92922.19;5028760;28;20046;-81
2021/04/04 08:00:44;;;;;;;7.18;4.32;;;;;;;3.13;100.00;92895.47;5028540;28;20449;-81
2021/04/04 08:03:16;;;;;;;6.03;4.20;;;;;;;3.18;100.00;92919.41;5028427;28;20050;-81
2021/04/04 08:05:47;;;;;;;9.88;4.63;;;;;;;3.41;100.00;92910.16;5028707;28;20464;-81
2021/04/04 08:08:50;;;;;;;9.57;4.97;;;;;;;2.89;100.00;92843.97;5028210;28;20552;-81
2021/04/04 08:11:24;;;;;;;9.82;5.07;;;;;;;3.19;100.00;92894.78;5029165;28;20063;-81
2021/04/04 08:13:58;;;;;;;7.00;3.03;;;;;;;3.34;100.00;92931.16;5030002;28;20045;-81
2021/04/04 08:16:33;;;;;;;5.72;3.25;;;;;;;3.39;100.00;92924.78;5032424;28;20053;-82
2021/04/04 08:18:59;;;;;;;6.78;3.75;;;;;;;3.00;100.00;92927.28;5032342;28;20042;-82
2021/04/04 08:21:31;;;;;;;14.95;5.60;;;;;;;2.88;100.00;92906.59;5031897;28;20492;-82
2021/04/04 08:24:08;;;;;;;6.20;3.65;;;;;;;3.26;100.00;92933.78;5031959;28;20498;-81
2021/04/04 08:26:42;;;;;;;6.63;3.85;;;;;;;3.32;100.00;92933.09;5031853;28;20099;-81
2021/04/04 08:29:14;;;;;;;7.07;4.47;;;;;;;3.33;100.00;92919.41;5028899;28;20522;-81
2021/04/04 08:31:45;;;;;;;8.52;3.85;;;;;;;3.46;100.00;92906.13;5012297;28;20061;-81
2021/04/04 08:34:14;;;;;;;6.45;4.45;;;;;;;3.07;100.00;92917.25;5011875;28;20049;-82
2021/04/04 08:36:53;;;;;;;4.65;2.83;;;;;;;2.80;100.00;92896.53;5011627;28;20542;-82
2021/04/04 08:39:24;;;;;;;4.47;2.75;;;;;;;2.80;100.00;92914.28;5022609;28;20049;-81
2021/04/04 08:41:53;;;;;;;6.43;2.95;;;;;;;2.74;100.00;92930.19;5029574;28;20055;-81
2021/04/04 08:44:23;;;;;;;6.82;4.30;;;;;;;2.62;100.00;92902.66;5031278;28;20049;-81
2021/04/04 08:46:55;;;;;;;9.93;5.05;;;;;;;2.75;100.00;92922.41;5031488;28;20490;-81
2021/04/04 08:49:23;;;;;;;8.10;4.28;;;;;;;2.30;100.00;92858.81;5030957;28;20057;-86
2021/04/04 08:52:03;;;;;;;5.68;3.63;;;;;;;2.69;100.00;92899.47;5031160;28;20046;-83
2021/04/04 08:54:30;;;;;;;9.45;6.10;;;;;;;2.71;100.00;92892.47;5031783;28;20049;-82
2021/04/04 08:57:06;;;;;;;8.35;4.35;;;;;;;2.90;100.00;92916.59;5031835;28;20049;-82
2021/04/04 08:59:34;;;;;;;;;;;;;;;3.01;100.00;92905.25;5031816;28;20075;-82
2021/04/04 09:02:02;;;;;;;7.82;4.15;;;;;;;2.93;100.00;92883.28;5031227;28;20004;-82
2021/04/04 09:04:29;;;;;;;10.25;5.65;;;;;;;2.80;100.00;92871.97;5031194;28;20593;-84
2021/04/04 09:07:03;;;;;;;6.35;3.88;;;;;;;2.94;100.00;92911.03;5030954;28;20054;-82
2021/04/04 09:09:36;;;;;;;8.88;4.28;;;;;;;3.07;100.00;92918.03;5030762;28;20049;-81
2021/04/04 09:12:04;;;;;;;8.55;4.07;;;;;;;2.96;100.00;92915.91;5030909;28;20060;-81
2021/04/04 09:14:35;;;;;;;3.78;3.05;;;;;;;2.22;100.00;92819.09;5030845;28;20128;-82
2021/04/04 09:17:08;;;;;;;7.28;3.75;;;;;;;2.91;100.00;92913.09;5018780;28;20143;-81
2021/04/04 09:19:38;;;;;;;9.35;5.28;;;;;;;3.02;100.00;92914.44;5010818;28;20104;-82
2021/04/04 09:22:10;;;;;;;7.57;5.65;;;;;;;3.04;100.00;92913.31;5011056;28;20046;-82
2021/04/04 09:24:46;;;;;;;7.10;5.00;;;;;;;2.92;100.00;92912.91;5010869;28;20100;-82
2021/04/04 09:27:15;;;;;;;7.85;4.43;;;;;;;2.97;100.00;92911.63;5011659;28;20053;-82
2021/04/04 09:29:45;;;;;;;6.75;2.92;;;;;;;2.83;100.00;92891.13;5011478;28;20045;-82
2021/04/04 09:32:17;;;;;;;6.97;4.28;;;;;;;2.84;100.00;92882.56;5011293;28;20490;-81
2021/04/04 09:34:45;;;;;;;7.63;4.38;;;;;;;3.20;100.00;92898.94;5011600;28;20144;-81
2021/04/04 09:37:21;;;;;;;9.52;5.05;;;;;;;3.28;100.00;92891.22;5011068;28;20106;-81
2021/04/04 09:39:55;;;;;;;;;;;;;;;3.33;100.00;92901.66;5011681;28;20121;-81
2021/04/04 09:42:22;;;;;;;9.02;4.35;;;;;;;3.29;100.00;92899.63;5011455;28;19983;-82
2021/04/04 09:44:51;;;;;;;12.98;5.22;;;;;;;3.44;100.00;92909.81;5010989;28;20054;-81
2021/04/04 09:47:18;;;;;;;14.70;5.88;;;;;;;3.41;100.00;92905.88;5011213;28;20054;-81
2021/04/04 09:49:45;;;;;;;7.95;5.13;;;;;;;3.53;100.00;92908.78;5010939;28;20054;-82
2021/04/04 09:52:24;;;;;;;8.95;4.25;;;;;;;3.52;100.00;92908.94;5010997;28;20471;-81
2021/04/04 09:55:05;;;;;;;6.25;3.40;;;;;;;3.31;100.00;92905.31;5011042;28;20497;-81
2021/04/04 09:57:41;;;;;;;6.57;3.67;;;;;;;3.23;100.00;92901.09;5011525;28;20050;-82
2021/04/04 10:00:24;;;;;;;6.45;4.85;;;;;;;3.11;100.00;92910.91;5010883;28;20064;-81
2021/04/04 10:02:51;;;;;;;7.25;4.10;;;;;;;3.06;100.00;92906.31;5010591;28;20073;-81
2021/04/04 10:05:29;;;;;;;7.15;4.22;;;;;;;3.03;100.00;92898.25;5010908;28;20050;-81
2021/04/04 10:08:09;;;;;;;9.98;4.72;;;;;;;3.11;100.00;92897.41;5011350;28;20050;-81
2021/04/04 10:10:36;;;;;;;8.18;4.10;;;;;;;3.05;100.00;92896.31;5010842;28;20491;-81
2021/04/04 10:13:04;;;;;;;7.78;4.63;;;;;;;3.09;100.00;92889.97;5011167;28;20057;-81
2021/04/04 10:15:38;;;;;;;7.38;4.32;;;;;;;3.05;100.00;92893.78;5010721;28;20080;-81
2021/04/04 10:18:05;;;;;;;7.82;3.97;;;;;;;2.88;100.00;92839.88;5010818;28;20064;-81
2021/04/04 10:20:40;;;;;;;7.18;3.60;;;;;;;2.99;100.00;92890.19;5010337;28;20569;-81
2021/04/04 10:23:08;;;;;;;6.60;3.30;;;;;;;2.95;100.00;92873.72;5010622;28;20119;-81
2021/04/04 10:25:35;;;;;;;8.35;3.63;;;;;;;2.85;100.00;92863.81;5009692;28;20061;-82
2021/04/04 10:28:05;;;;;;;4.80;2.92;;;;;;;2.89;100.00;92889.63;5010166;28;20054;-82
2021/04/04 10:30:32;;;;;;;8.18;2.95;;;;;;;2.97;100.00;92888.78;5023941;28;20054;-82
2021/04/04 10:33:20;;;;;;;4.38;2.85;;;;;;;2.99;100.00;92882.59;5029748;28;20588;-81
2021/04/04 10:35:47;;;;;;;5.38;2.25;;;;;;;3.01;100.00;92887.50;5028933;28;20057;-81
2021/04/04 10:38:16;;;;;;;5.05;2.40;;;;;;;2.70;100.00;92891.69;5029222;28;20057;-81
2021/04/04 10:40:51;;;;;;;4.50;2.85;;;;;;;2.66;100.00;92881.09;5029752;28;20046;-81
2021/04/04 10:43:20;;;;;;;6.43;3.22;;;;;;;2.97;100.00;92897.22;5029277;28;20103;-81
2021/04/04 10:46:05;;;;;;;8.85;2.25;;;;;;;3.02;100.00;92891.59;5028991;28;20282;-81
2021/04/04 10:48:34;;;;;;;4.00;3.17;;;;;;;2.82;100.00;92866.69;5030177;28;20140;-81
2021/04/04 10:51:23;;;;;;;3.53;2.38;;;;;;;2.65;100.00;92863.50;5029246;28;20046;-82
2021/04/04 10:53:53;;;;;;;9.93;5.22;;;;;;;2.82;100.00;92876.06;5029959;28;20110;-82
2021/04/04 10:56:19;;;;;;;3.55;2.08;;;;;;;2.83;100.00;92893.66;5029924;28;20064;-82
2021/04/04 10:58:46;;;;;;;;;;;;;;;2.70;100.00;92898.50;5029773;28;20455;-82
2021/04/04 11:01:14;;;;;;;5.18;2.28;;;;;;;2.28;100.00;92840.44;5028976;28;19991;-82
2021/04/04 11:03:42;;;;;;;6.55;3.42;;;;;;;2.77;100.00;92901.94;5028846;28;20056;-82
2021/04/04 11:06:10;;;;;;;5.38;2.88;;;;;;;2.47;100.00;92874.72;5029218;28;20080;-82
2021/04/04 11:08:36;;;;;;;7.95;3.65;;;;;;;2.42;100.00;92860.94;5029257;28;20053;-82
2021/04/04 11:11:07;;;;;;;5.28;3.75;;;;;;;2.64;100.00;92897.44;5029042;28;20046;-82
2021/04/04 11:13:35;;;;;;;5.13;3.67;;;;;;;2.72;100.00;92902.44;5028653;28;20045;-82
2021/04/04 11:16:06;;;;;;;7.35;3.17;;;;;;;2.53;100.00;92879.13;5029258;28;20048;-83
2021/04/04 11:18:40;;;;;;;6.03;3.65;;;;;;;2.77;100.00;92894.31;5028968;28;20135;-82
2021/04/04 11:21:10;;;;;;;8.05;4.05;;;;;;;2.93;100.00;92893.44;5029252;28;20076;-83
2021/04/04 11:23:39;;;;;;;7.97;4.38;;;;;;;2.94;100.00;92882.31;5029004;28;20100;-83
2021/04/04 11:26:31;;;;;;;6.60;3.17;;;;;;;3.14;100.00;92875.00;5028056;28;20057;-83
2021/04/04 11:29:11;;;;;;;9.27;4.18;;;;;;;3.37;100.00;92871.63;5027500;28;20061;-82
2021/04/04 11:31:40;;;;;;;5.35;3.58;;;;;;;3.19;100.00;92826.25;5008898;28;20100;-83
2021/04/04 11:34:28;;;;;;;5.15;2.85;;;;;;;3.20;100.00;92855.78;5008877;28;20088;-82
2021/04/04 11:36:55;;;;;;;6.45;3.50;;;;;;;3.12;100.00;92843.16;5006349;28;20056;-83
2021/04/04 11:39:22;;;;;;;6.70;4.00;;;;;;;2.57;100.00;92757.06;5006596;28;20487;-84
2021/04/04 11:41:51;;;;;;;8.77;3.65;;;;;;;3.30;100.00;92841.09;5008060;28;20042;-82
2021/04/04 11:44:37;;;;;;;7.68;4.07;;;;;;;3.22;100.00;92838.63;5008871;28;20050;-83
2021/04/04 11:47:04;;;;;;;;;;;;;;;3.31;100.00;92862.16;5009896;28;20486;-83
2021/04/04 11:49:36;;;;;;;5.90;2.63;;;;;;;2.97;100.00;92831.25;5013015;28;19926;-83
2021/04/04 11:52:37;;;;;;;4.82;2.33;;;;;;;3.10;100.00;92837.47;5012845;28;20050;-83
2021/04/04 11:55:04;;;;;;;6.45;4.28;;;;;;;2.86;100.00;92846.88;5012795;28;20057;-83
2021/04/04 11:57:35;;;;;;;2.90;1.33;;;;;;;2.57;100.00;92853.41;5013033;28;20071;-84
2021/04/04 12:00:09;;;;;;;5.85;2.40;;;;;;;2.22;100.00;92816.56;5013170;28;20108;-82